Time;durP1;ratioP1;P1;durP2;ratioP2;P2;SDS_P1;SDS_P2;PMS_P1;PMS_P2;Temp;Humidity;BMP_temperature;BMP_pressure;BME280_temperature;BME280_humidity;BME280_pressure;Samples;Min_cycle;Max_cycle;Signal;HPM_P1;HPM_P2
2021/09/20 00:02:16;;;;;;;3.50;2.63;;;;;;;15.00;57.64;102034.94;6132562;28;20396;-50
2021/09/20 00:05:38;;;;;;;2.67;2.03;;;;;;;15.22;56.92;102028.63;6133403;28;20362;-53
2021/09/20 00:09:00;;;;;;;4.43;2.57;;;;;;;15.23;57.07;102027.72;6133335;28;20235;-50
2021/09/20 00:12:21;;;;;;;2.47;1.73;;;;;;;15.16;57.08;102023.44;6129000;28;20251;-52
2021/09/20 00:15:41;;;;;;;3.50;2.40;;;;;;;15.02;57.24;102025.31;6131241;28;20238;-49
2021/09/20 00:19:02;;;;;;;2.57;2.00;;;;;;;15.01;57.69;102034.06;6127768;28;20227;-52
2021/09/20 00:22:23;;;;;;;2.90;2.23;;;;;;;15.18;57.09;102028.66;6134027;28;20235;-52
2021/09/20 00:25:47;;;;;;;2.77;2.20;;;;;;;15.03;57.71;102034.94;6131860;28;20235;-53
2021/09/20 00:29:08;;;;;;;4.47;2.57;;;;;;;15.01;58.05;102037.56;6135012;28;20612;-49
2021/09/20 00:32:29;;;;;;;2.07;1.87;;;;;;;15.14;56.75;102033.06;6131846;28;20649;-49
2021/09/20 00:35:50;;;;;;;3.23;2.17;;;;;;;15.04;56.96;102031.41;6128405;28;20243;-52
2021/09/20 00:39:11;;;;;;;2.10;1.90;;;;;;;14.86;59.05;102045.53;6132142;28;21010;-51
2021/09/20 00:42:34;;;;;;;1.93;1.77;;;;;;;14.63;57.80;102041.31;6131954;28;20227;-46
2021/09/20 00:45:54;;;;;;;2.20;1.80;;;;;;;14.75;57.82;102037.72;6132989;28;20231;-49
2021/09/20 00:49:15;;;;;;;2.43;2.10;;;;;;;14.93;57.35;102042.00;6119214;28;20239;-51
2021/09/20 00:52:38;;;;;;;1.83;1.73;;;;;;;14.94;57.19;102035.84;6120894;28;20236;-46
2021/09/20 00:56:01;;;;;;;3.27;2.27;;;;;;;14.88;57.41;102043.78;6133185;28;20231;-48
2021/09/20 00:59:23;;;;;;;2.80;1.70;;;;;;;14.95;57.58;102037.59;6131464;28;20239;-49
2021/09/20 01:02:45;;;;;;;2.00;1.90;;;;;;;14.92;57.52;102038.47;6135012;28;20237;-53
2021/09/20 01:06:06;;;;;;;2.03;1.70;;;;;;;14.81;57.72;102036.81;6121234;28;20227;-49
2021/09/20 01:09:27;;;;;;;4.00;2.30;;;;;;;14.83;57.69;102040.31;6135944;28;20235;-54
2021/09/20 01:12:48;;;;;;;2.30;1.87;;;;;;;14.93;57.04;102039.38;6130685;28;20512;-49
2021/09/20 01:16:11;;;;;;;2.10;1.97;;;;;;;14.74;57.84;102041.25;6125768;28;20231;-50
2021/09/20 01:19:32;;;;;;;2.20;1.73;;;;;;;14.77;57.52;102034.25;6131513;28;20235;-47
2021/09/20 01:22:59;;;;;;;2.00;1.73;;;;;;;14.83;57.28;102043.81;6129540;28;20243;-49
2021/09/20 01:26:19;;;;;;;2.40;1.73;;;;;;;14.70;56.78;102042.16;6131540;28;20310;-49
2021/09/20 01:29:40;;;;;;;4.17;2.47;;;;;;;14.66;56.90;102041.31;6133453;28;20238;-51
2021/09/20 01:33:01;;;;;;;3.23;1.90;;;;;;;14.65;56.83;102043.94;6135878;28;20239;-48
2021/09/20 01:36:22;;;;;;;1.73;1.40;;;;;;;14.83;56.67;102043.81;6135919;28;20235;-49
2021/09/20 01:39:45;;;;;;;3.00;1.77;;;;;;;14.79;57.27;102044.69;6136792;28;20268;-53
2021/09/20 01:43:06;;;;;;;3.23;2.13;;;;;;;14.79;57.54;102049.06;6134942;28;20235;-51
2021/09/20 01:46:27;;;;;;;5.80;2.03;;;;;;;14.66;57.00;102046.53;6134178;28;20247;-48
2021/09/20 01:49:48;;;;;;;2.60;2.40;;;;;;;14.65;57.21;102049.16;6135863;28;20235;-53
2021/09/20 01:53:09;;;;;;;1.70;1.60;;;;;;;14.68;56.90;102047.41;6134808;28;20235;-53
2021/09/20 01:56:32;;;;;;;2.87;2.13;;;;;;;14.77;56.60;102043.84;6137245;28;20239;-51
2021/09/20 01:59:53;;;;;;;2.40;1.70;;;;;;;14.80;56.63;102041.22;6136505;28;20244;-49
2021/09/20 02:03:14;;;;;;;2.70;2.50;;;;;;;14.83;56.49;102038.56;6133443;28;20239;-49
2021/09/20 02:06:35;;;;;;;5.13;2.77;;;;;;;14.79;56.56;102036.81;6125473;28;20560;-50
2021/09/20 02:09:57;;;;;;;2.33;2.13;;;;;;;14.65;57.52;102034.31;6136784;28;20322;-52
2021/09/20 02:13:19;;;;;;;2.33;2.17;;;;;;;14.80;56.32;102038.59;6128003;28;20239;-49
2021/09/20 02:16:41;;;;;;;4.03;1.77;;;;;;;14.54;57.02;102030.88;6134741;28;20227;-47
2021/09/20 02:20:02;;;;;;;2.67;2.10;;;;;;;14.54;56.80;102025.63;6134743;28;20242;-51
2021/09/20 02:23:23;;;;;;;2.57;2.23;;;;;;;14.48;56.64;102036.13;6131794;28;20231;-50
2021/09/20 02:26:43;;;;;;;4.87;2.47;;;;;;;14.60;57.08;102033.50;6128885;28;20231;-48
2021/09/20 02:30:07;;;;;;;3.07;2.30;;;;;;;14.74;56.35;102034.25;6133032;28;20239;-46
2021/09/20 02:33:28;;;;;;;2.13;1.90;;;;;;;14.77;56.00;102039.50;6134308;28;20231;-50
2021/09/20 02:36:49;;;;;;;3.40;2.23;;;;;;;14.79;56.08;102033.34;6122066;28;20235;-47
2021/09/20 02:40:11;;;;;;;3.67;1.80;;;;;;;14.61;56.26;102031.72;6138987;28;20227;-46
2021/09/20 02:43:33;;;;;;;2.20;2.00;;;;;;;14.37;56.71;102044.94;6133922;28;20706;-48
2021/09/20 02:46:55;;;;;;;2.27;2.07;;;;;;;14.48;56.77;102044.00;6133559;28;20317;-46
2021/09/20 02:50:16;;;;;;;2.40;2.20;;;;;;;14.70;56.31;102045.66;6126562;28;20231;-48
2021/09/20 02:53:37;;;;;;;2.17;1.97;;;;;;;14.82;56.06;102047.31;6124903;28;20506;-47
2021/09/20 02:56:58;;;;;;;2.77;1.90;;;;;;;14.80;56.39;102042.97;6131932;28;20261;-47
2021/09/20 03:00:19;;;;;;;2.40;2.00;;;;;;;14.71;57.08;102044.78;6133317;28;20223;-46
2021/09/20 03:03:41;;;;;;;2.80;2.23;;;;;;;14.69;57.18;102051.75;6131766;28;20288;-47
2021/09/20 03:07:03;;;;;;;2.73;2.00;;;;;;;14.82;56.28;102054.31;6131547;28;20255;-47
2021/09/20 03:10:24;;;;;;;11.37;10.30;;;;;;;14.58;57.97;102058.84;6130875;28;20231;-49
2021/09/20 03:13:45;;;;;;;8.57;7.77;;;;;;;14.79;57.64;102047.31;6132122;28;20239;-53
2021/09/20 03:17:06;;;;;;;7.20;6.50;;;;;;;14.92;57.16;102050.72;6131241;28;20593;-47
2021/09/20 03:20:28;;;;;;;4.50;3.77;;;;;;;14.81;57.27;102060.44;6133412;28;20239;-51
2021/09/20 03:23:49;;;;;;;2.23;2.03;;;;;;;14.71;57.72;102060.50;6136141;28;20224;-49
2021/09/20 03:27:11;;;;;;;3.47;3.07;;;;;;;14.63;58.12;102072.78;6133952;28;20230;-47
2021/09/20 03:30:32;;;;;;;17.93;3.57;;;;;;;14.70;57.42;102055.28;6131787;28;20696;-46
2021/09/20 03:33:52;;;;;;;2.70;2.50;;;;;;;14.68;57.42;102065.75;6133253;28;20266;-50
2021/09/20 03:37:14;;;;;;;3.80;2.63;;;;;;;14.63;57.59;102062.28;6134953;28;20496;-51
2021/09/20 03:40:36;;;;;;;2.77;2.20;;;;;;;14.60;57.68;102062.31;6131820;28;20235;-47
2021/09/20 03:43:57;;;;;;;4.27;2.43;;;;;;;14.69;57.33;102070.09;6133310;28;20489;-52
2021/09/20 03:47:18;;;;;;;3.33;2.70;;;;;;;14.70;57.37;102078.88;6135716;28;21154;-48
2021/09/20 03:50:39;;;;;;;3.47;3.17;;;;;;;14.73;57.03;102074.47;6133417;28;20564;-49
2021/09/20 03:54:01;;;;;;;7.77;7.07;;;;;;;14.57;58.27;102075.44;6134758;28;20235;-48
2021/09/20 03:57:21;;;;;;;10.03;9.20;;;;;;;14.52;57.70;102079.78;6132054;28;20235;-46
2021/09/20 04:00:42;;;;;;;8.03;7.33;;;;;;;14.59;58.17;102081.53;6118546;28;20637;-50
2021/09/20 04:04:03;;;;;;;5.40;5.00;;;;;;;14.69;57.81;102082.34;6133888;28;20231;-48
2021/09/20 04:07:24;;;;;;;4.20;3.77;;;;;;;14.54;57.69;102078.06;6133153;28;20238;-50
2021/09/20 04:10:46;;;;;;;5.17;3.63;;;;;;;14.58;58.11;102090.31;6136723;28;20625;-55
2021/09/20 04:14:08;;;;;;;6.07;5.30;;;;;;;14.44;58.63;102087.69;6132231;28;20239;-47
2021/09/20 04:17:29;;;;;;;3.20;2.90;;;;;;;14.31;58.75;102089.50;6132907;28;20238;-46
2021/09/20 04:20:51;;;;;;;4.37;3.20;;;;;;;14.42;58.22;102091.22;6127079;28;20760;-49
2021/09/20 04:24:12;;;;;;;3.20;3.00;;;;;;;14.45;58.10;102099.94;6134092;28;20231;-49
2021/09/20 04:27:34;;;;;;;4.77;2.93;;;;;;;14.47;58.41;102102.56;6132731;28;20227;-47
2021/09/20 04:30:55;;;;;;;5.57;2.77;;;;;;;14.45;58.31;102105.16;6131576;28;20231;-46
2021/09/20 04:34:16;;;;;;;4.80;2.33;;;;;;;14.32;58.72;102106.09;6133320;28;20243;-50
2021/09/20 04:37:37;;;;;;;4.63;3.00;;;;;;;14.38;58.33;102101.72;6132364;28;20621;-48
2021/09/20 04:40:59;;;;;;;8.00;7.30;;;;;;;14.38;58.61;102109.59;6131066;28;20227;-52
2021/09/20 04:44:21;;;;;;;4.00;3.60;;;;;;;14.28;58.82;102110.47;6134025;28;20266;-46
2021/09/20 04:47:42;;;;;;;8.87;3.37;;;;;;;14.16;58.92;102118.41;6118013;28;20617;-47
2021/09/20 04:51:03;;;;;;;4.03;3.67;;;;;;;14.32;58.86;102125.31;6130209;28;20239;-51
2021/09/20 04:54:24;;;;;;;4.13;3.40;;;;;;;14.33;58.85;102124.44;6132437;28;20267;-51
2021/09/20 04:57:45;;;;;;;3.50;3.20;;;;;;;14.31;58.80;102118.34;6132347;28;20239;-46
2021/09/20 05:01:07;;;;;;;3.93;3.50;;;;;;;14.34;58.67;102120.94;6131061;28;20235;-52
2021/09/20 05:04:28;;;;;;;7.10;3.90;;;;;;;14.33;58.80;102124.44;6138260;28;20239;-48
2021/09/20 05:07:49;;;;;;;4.53;3.53;;;;;;;14.38;58.65;102125.31;6125918;28;20231;-51
2021/09/20 05:11:10;;;;;;;4.47;3.13;;;;;;;14.36;58.61;102134.03;6134807;28;20235;-48
2021/09/20 05:14:31;;;;;;;4.40;3.53;;;;;;;14.27;58.69;102137.56;6136835;28;20250;-46
2021/09/20 05:17:54;;;;;;;3.57;3.00;;;;;;;14.25;58.18;102138.44;6138408;28;20240;-51
2021/09/20 05:21:14;;;;;;;9.20;8.20;;;;;;;14.42;57.68;102147.09;6134467;28;20223;-49
2021/09/20 05:24:35;;;;;;;7.03;6.43;;;;;;;14.25;57.35;102143.69;6138560;28;20837;-51
2021/09/20 05:27:56;;;;;;;4.20;3.80;;;;;;;14.33;56.98;102144.53;6134552;28;20568;-51
2021/09/20 05:31:17;;;;;;;3.33;3.03;;;;;;;14.33;56.74;102147.16;6133616;28;20617;-53
2021/09/20 05:34:39;;;;;;;4.17;2.47;;;;;;;14.40;56.01;102148.00;6136147;28;20231;-49
2021/09/20 05:38:00;;;;;;;5.87;3.77;;;;;;;14.40;56.49;102155.88;6132719;28;20235;-46
2021/09/20 05:41:21;;;;;;;3.40;3.10;;;;;;;14.48;56.27;102147.09;6121974;28;20243;-51
2021/09/20 05:44:42;;;;;;;3.70;3.00;;;;;;;14.46;55.98;102150.59;6128926;28;20235;-47
2021/09/20 05:48:04;;;;;;;3.80;3.23;;;;;;;14.59;55.49;102141.84;6129277;28;20606;-50
2021/09/20 05:51:26;;;;;;;2.73;2.53;;;;;;;14.57;55.59;102156.69;6130056;28;20254;-50
2021/09/20 05:54:47;;;;;;;3.80;3.43;;;;;;;14.57;55.29;102154.09;6132157;28;20235;-46
2021/09/20 05:58:08;;;;;;;4.13;2.97;;;;;;;14.72;55.05;102148.75;6135002;28;20262;-48
2021/09/20 06:01:29;;;;;;;7.20;4.07;;;;;;;14.68;55.09;102147.03;6132970;28;20239;-45
2021/09/20 06:04:50;;;;;;;6.93;5.10;;;;;;;14.68;55.36;102154.91;6131465;28;20231;-51
2021/09/20 06:08:13;;;;;;;5.57;3.20;;;;;;;14.74;55.23;102159.25;6132912;28;20231;-50
2021/09/20 06:11:34;;;;;;;11.07;10.07;;;;;;;14.68;55.19;102169.78;6133220;28;20227;-48
2021/09/20 06:14:55;;;;;;;10.13;9.23;;;;;;;14.73;54.92;102168.88;6140472;28;20231;-50
2021/09/20 06:18:16;;;;;;;6.30;4.97;;;;;;;14.72;54.88;102154.00;6123235;28;20609;-49
2021/09/20 06:21:36;;;;;;;3.97;3.37;;;;;;;14.90;54.70;102167.91;6112637;28;20325;-52
2021/09/20 06:24:59;;;;;;;10.20;3.53;;;;;;;14.88;54.74;102172.28;6121112;28;20239;-49
2021/09/20 06:28:20;;;;;;;3.37;3.07;;;;;;;14.85;54.29;102167.03;6120636;28;20254;-53
2021/09/20 06:31:42;;;;;;;4.10;3.53;;;;;;;15.03;53.96;102161.72;6119544;28;20238;-49
2021/09/20 06:35:03;;;;;;;3.27;2.93;;;;;;;14.85;54.43;102167.94;6115848;28;20365;-54
2021/09/20 06:38:25;;;;;;;3.23;2.93;;;;;;;15.12;52.96;102171.25;6103269;28;20239;-51
2021/09/20 06:41:47;;;;;;;6.40;3.13;;;;;;;15.06;53.40;102169.56;6113716;28;20236;-51
2021/09/20 06:45:09;;;;;;;4.67;3.60;;;;;;;15.16;53.54;102168.63;6125730;28;20231;-50
2021/09/20 06:48:30;;;;;;;10.53;3.63;;;;;;;15.26;53.21;102176.44;6122710;28;20314;-50
2021/09/20 06:51:52;;;;;;;8.67;3.80;;;;;;;15.31;52.80;102161.50;6127570;28;20231;-49
2021/09/20 06:55:14;;;;;;;8.33;4.97;;;;;;;15.16;53.42;102165.13;6127428;28;20264;-51
2021/09/20 06:58:36;;;;;;;5.60;5.20;;;;;;;15.26;53.14;102165.94;6118638;28;20247;-48
2021/09/20 07:01:57;;;;;;;4.00;3.60;;;;;;;15.31;52.96;102170.25;6126685;28;20305;-47
2021/09/20 07:05:18;;;;;;;3.17;2.87;;;;;;;15.50;52.16;102170.13;6127822;28;20254;-47
2021/09/20 07:08:39;;;;;;;3.03;2.70;;;;;;;15.38;52.67;102173.72;6132945;28;20243;-50
2021/09/20 07:12:01;;;;;;;2.87;2.60;;;;;;;15.27;53.38;102184.28;6127709;28;20773;-49
2021/09/20 07:15:23;;;;;;;4.90;3.23;;;;;;;15.50;53.19;102176.22;6120004;28;20246;-52
2021/09/20 07:18:44;;;;;;;4.83;3.47;;;;;;;15.53;56.05;102178.84;6125951;28;20256;-53
2021/09/20 07:22:05;;;;;;;5.50;3.23;;;;;;;15.71;54.95;102179.56;6124317;28;20246;-50
2021/09/20 07:25:26;;;;;;;4.17;3.27;;;;;;;15.76;54.64;102185.72;6124163;28;20231;-50
2021/09/20 07:28:48;;;;;;;3.20;3.00;;;;;;;15.83;54.27;102176.88;6110710;28;20236;-50
2021/09/20 07:32:10;;;;;;;4.33;3.90;;;;;;;15.86;54.08;102166.34;6123834;28;20231;-52
2021/09/20 07:35:31;;;;;;;7.37;6.57;;;;;;;15.88;54.74;102164.56;6128343;28;20270;-50
2021/09/20 07:38:52;;;;;;;9.27;8.47;;;;;;;16.08;53.55;102176.63;6131805;28;20220;-47
2021/09/20 07:42:13;;;;;;;4.80;3.80;;;;;;;16.02;53.46;102184.59;6131632;28;20720;-46
2021/09/20 07:45:34;;;;;;;4.57;2.93;;;;;;;16.02;53.58;102188.06;6121429;28;20516;-48
2021/09/20 07:48:56;;;;;;;4.90;3.10;;;;;;;16.13;53.19;102187.97;6130148;28;20259;-51
2021/09/20 07:52:17;;;;;;;4.53;3.57;;;;;;;16.13;52.82;102198.50;6131878;28;20234;-50
2021/09/20 07:55:38;;;;;;;3.87;3.57;;;;;;;16.16;53.21;102194.94;6127905;28;20239;-50
2021/09/20 07:59:00;;;;;;;9.40;8.60;;;;;;;16.30;53.55;102196.56;6128966;28;20239;-48
2021/09/20 08:02:20;;;;;;;9.40;8.50;;;;;;;16.40;52.96;102204.31;6126323;28;20243;-52
2021/09/20 08:05:45;;;;;;;7.97;6.33;;;;;;;16.55;51.80;102212.03;6125651;28;20239;-47
2021/09/20 08:09:06;;;;;;;6.70;6.20;;;;;;;16.24;53.51;102219.38;6106826;28;20231;-52
2021/09/20 08:12:27;;;;;;;5.50;5.10;;;;;;;16.56;52.25;102213.78;6054292;28;20270;-54
2021/09/20 08:15:48;;;;;;;3.87;3.27;;;;;;;16.41;50.70;102216.59;6073870;28;20243;-51
2021/09/20 08:19:09;;;;;;;3.20;3.00;;;;;;;16.62;49.30;102213.69;6099102;28;20231;-50
2021/09/20 08:22:32;;;;;;;2.97;2.73;;;;;;;16.62;50.23;102216.34;6128155;28;20263;-49
2021/09/20 08:25:55;;;;;;;5.10;3.00;;;;;;;16.81;50.63;102210.81;6116054;28;20318;-48
2021/09/20 08:29:16;;;;;;;4.63;3.27;;;;;;;17.26;49.04;102213.75;6081110;28;20227;-50
2021/09/20 08:32:37;;;;;;;4.53;3.00;;;;;;;17.30;48.41;102223.34;6086230;28;20231;-50
2021/09/20 08:35:58;;;;;;;3.20;2.90;;;;;;;17.49;47.29;102232.72;6095803;28;20354;-47
2021/09/20 08:39:22;;;;;;;2.80;2.60;;;;;;;17.43;48.05;102230.19;6098939;28;20258;-49
2021/09/20 08:42:44;;;;;;;2.97;2.53;;;;;;;17.48;48.27;102228.31;6128102;28;20235;-50
2021/09/20 08:46:07;;;;;;;6.30;3.50;;;;;;;17.34;48.42;102234.72;6078909;28;20242;-54
2021/09/20 08:49:29;;;;;;;5.77;5.17;;;;;;;17.54;48.65;102234.41;6113375;28;20247;-52
2021/09/20 08:52:49;;;;;;;3.70;3.40;;;;;;;17.57;47.76;102239.63;6130199;28;20227;-53
2021/09/20 08:56:12;;;;;;;3.93;3.40;;;;;;;17.36;49.42;102236.41;6135078;28;20246;-52
2021/09/20 08:59:33;;;;;;;4.67;3.57;;;;;;;17.58;48.43;102236.09;6096767;28;20242;-51
2021/09/20 09:02:55;;;;;;;3.30;2.70;;;;;;;17.64;48.83;102228.09;6110604;28;20227;-51
2021/09/20 09:06:29;;;;;;;5.27;3.40;;;;;;;17.46;48.15;102243.28;6110653;28;20258;-52
2021/09/20 09:09:51;;;;;;;3.50;3.07;;;;;;;17.70;47.98;102246.44;6129582;28;20234;-48
2021/09/20 09:13:14;;;;;;;3.93;3.53;;;;;;;17.59;48.20;102249.25;6133108;28;20231;-51
2021/09/20 09:16:37;;;;;;;3.70;3.33;;;;;;;17.47;48.40;102246.81;6100810;28;20239;-51
2021/09/20 09:20:02;;;;;;;4.47;3.47;;;;;;;17.27;48.27;102253.25;6146812;28;20505;-51
2021/09/20 09:23:23;;;;;;;3.50;3.20;;;;;;;17.81;47.89;102255.03;6134738;28;20243;-52
2021/09/20 09:26:55;;;;;;;4.40;3.10;;;;;;;17.60;48.32;102260.63;6132439;28;20242;-53
2021/09/20 09:30:23;;;;;;;5.40;4.47;;;;;;;17.64;48.75;102254.44;6135027;28;20728;-55
2021/09/20 09:33:45;;;;;;;6.63;4.67;;;;;;;17.86;48.23;102255.88;6124988;28;20345;-50
2021/09/20 09:37:11;;;;;;;6.23;5.63;;;;;;;17.99;47.93;102256.53;6131153;28;20318;-48
2021/09/20 09:40:45;;;;;;;8.90;5.80;;;;;;;17.81;48.95;102252.38;6131022;28;20235;-53
2021/09/20 09:44:08;;;;;;;4.87;4.00;;;;;;;17.68;48.86;102253.47;6130138;28;20308;-54
2021/09/20 09:47:32;;;;;;;4.17;3.07;;;;;;;17.81;49.06;102257.66;6126594;28;20243;-49
2021/09/20 09:50:55;;;;;;;3.80;3.00;;;;;;;17.78;49.28;102255.09;6128680;28;20238;-54
2021/09/20 09:54:15;;;;;;;7.00;3.23;;;;;;;17.98;48.67;102259.19;6132473;28;21731;-50
2021/09/20 09:57:37;;;;;;;5.87;3.77;;;;;;;17.86;48.98;102266.41;6130962;28;20235;-51
2021/09/20 10:01:14;;;;;;;3.37;3.13;;;;;;;17.87;48.58;102264.63;6129705;28;20242;-54
2021/09/20 10:04:51;;;;;;;4.53;2.63;;;;;;;18.14;47.68;102263.28;6131774;28;20828;-54
2021/09/20 10:08:13;;;;;;;3.50;3.20;;;;;;;18.23;48.07;102263.13;6130048;28;20318;-53
2021/09/20 10:11:35;;;;;;;4.43;3.23;;;;;;;17.96;47.59;102261.84;6134657;28;20247;-51
2021/09/20 10:15:00;;;;;;;10.67;3.03;;;;;;;17.74;47.84;102269.22;6127842;28;20709;-49
2021/09/20 10:18:21;;;;;;;4.03;3.10;;;;;;;17.98;47.42;102252.16;6124270;28;20235;-55
2021/09/20 10:21:43;;;;;;;3.13;2.70;;;;;;;18.06;47.65;102259.91;6138221;28;20235;-52
2021/09/20 10:25:07;;;;;;;7.13;5.07;;;;;;;18.22;46.68;102261.41;6135136;28;20330;-54
2021/09/20 10:28:28;;;;;;;6.40;5.40;;;;;;;18.10;47.68;102262.47;6132757;28;20232;-49
2021/09/20 10:31:49;;;;;;;5.07;4.57;;;;;;;17.96;47.46;102253.94;6140636;28;20956;-49
2021/09/20 10:35:26;;;;;;;4.90;3.92;;;;;;;18.13;47.54;102255.44;6141190;28;20254;-50
2021/09/20 10:38:52;;;;;;;3.45;3.20;;;;;;;18.25;46.83;102253.41;6134237;28;20343;-49
2021/09/20 10:43:03;;;;;;;2.93;2.60;;;;;;;18.64;45.99;102258.81;6129652;28;20238;-53
2021/09/20 10:46:28;;;;;;;3.27;3.00;;;;;;;19.19;44.94;102251.56;6136483;28;20239;-49
2021/09/20 10:49:50;;;;;;;5.40;3.58;;;;;;;19.55;44.02;102253.38;6136837;28;20228;-53
2021/09/20 10:53:17;;;;;;;3.80;3.20;;;;;;;19.77;43.17;102248.47;6135396;28;20227;-52
2021/09/20 10:56:39;;;;;;;5.53;2.72;;;;;;;19.81;43.60;102255.41;6135932;28;20239;-52
2021/09/20 11:00:22;;;;;;;4.82;3.30;;;;;;;19.33;43.90;102256.53;6116056;28;20629;-50
2021/09/20 11:03:45;;;;;;;5.50;4.57;;;;;;;19.30;43.17;102253.94;6140082;28;20538;-51
2021/09/20 11:07:12;;;;;;;4.72;4.32;;;;;;;19.59;43.48;102247.13;6130738;28;20228;-52
2021/09/20 11:10:34;;;;;;;3.67;3.38;;;;;;;19.80;42.96;102233.41;6134322;28;20605;-54
2021/09/20 11:14:02;;;;;;;2.97;2.78;;;;;;;19.87;42.79;102234.09;6140147;28;20208;-50
2021/09/20 11:17:27;;;;;;;4.85;3.60;;;;;;;19.91;42.80;102238.44;6139065;28;20234;-54
2021/09/20 11:20:49;;;;;;;3.45;3.15;;;;;;;19.77;43.26;102237.88;6131799;28;20211;-52
2021/09/20 11:24:15;;;;;;;3.08;2.85;;;;;;;19.90;42.90;102241.09;6130805;28;20460;-53
2021/09/20 11:27:39;;;;;;;3.45;2.67;;;;;;;19.86;42.61;102238.53;6131918;28;20224;-52
2021/09/20 11:31:00;;;;;;;7.22;6.55;;;;;;;19.57;42.67;102247.16;6131411;28;20231;-47
2021/09/20 11:34:29;;;;;;;3.63;3.33;;;;;;;19.50;43.28;102242.03;6126657;28;20207;-51
2021/09/20 11:37:50;;;;;;;3.55;3.10;;;;;;;18.94;44.56;102243.31;6129840;28;20234;-48
2021/09/20 11:41:23;;;;;;;4.32;3.53;;;;;;;18.99;43.26;102244.06;6124580;28;20239;-53
2021/09/20 11:44:49;;;;;;;4.53;3.22;;;;;;;18.86;43.79;102247.84;6135767;28;20210;-53
2021/09/20 11:48:19;;;;;;;4.30;2.75;;;;;;;19.38;42.97;102241.44;6132893;28;20254;-53
2021/09/20 11:51:41;;;;;;;3.20;2.75;;;;;;;19.53;42.72;102245.50;6134894;28;20230;-50
2021/09/20 11:55:04;;;;;;;6.78;4.22;;;;;;;19.53;41.61;102247.28;6134143;28;20478;-52
2021/09/20 11:58:25;;;;;;;6.07;5.57;;;;;;;19.85;42.01;102241.19;6139753;28;21070;-51
2021/09/20 12:01:46;;;;;;;4.72;4.28;;;;;;;19.50;42.25;102247.31;6136698;28;20234;-51
2021/09/20 12:05:08;;;;;;;3.00;2.53;;;;;;;19.10;43.46;102248.25;6136545;28;20218;-52
2021/09/20 12:08:31;;;;;;;3.97;3.20;;;;;;;19.16;42.19;102256.03;6138844;28;20250;-52
2021/09/20 12:11:52;;;;;;;4.93;2.97;;;;;;;19.47;42.30;102249.13;6136647;28;20228;-51
2021/09/20 12:15:15;;;;;;;3.55;3.25;;;;;;;19.42;42.89;102256.28;6140791;28;20211;-54
2021/09/20 12:18:37;;;;;;;8.02;7.18;;;;;;;19.28;42.42;102256.63;6140067;28;20314;-49
2021/09/20 12:22:01;;;;;;;3.95;3.58;;;;;;;19.21;42.25;102265.59;6133572;28;20327;-52
2021/09/20 12:25:33;;;;;;;3.20;2.60;;;;;;;19.04;43.22;102262.47;6133556;28;20196;-53
2021/09/20 12:28:56;;;;;;;3.20;2.95;;;;;;;19.04;43.07;102267.75;6144645;28;20227;-51
2021/09/20 12:32:20;;;;;;;3.30;2.80;;;;;;;19.43;42.30;102263.31;6140252;28;20235;-52
2021/09/20 12:35:42;;;;;;;2.67;2.45;;;;;;;19.84;41.22;102261.50;6136410;28;20609;-51
2021/09/20 12:39:09;;;;;;;2.92;2.67;;;;;;;20.38;40.66;102264.53;6138398;28;20208;-55
2021/09/20 12:42:32;;;;;;;2.95;2.70;;;;;;;20.03;40.98;102261.91;6142371;28;20345;-52
2021/09/20 12:45:54;;;;;;;6.55;5.70;;;;;;;19.81;41.78;102271.25;6133821;28;20199;-51
2021/09/20 12:49:16;;;;;;;11.23;10.13;;;;;;;20.46;41.06;102262.53;6141293;28;20557;-50
2021/09/20 12:52:43;;;;;;;3.38;3.08;;;;;;;19.97;41.06;102261.19;6143765;28;20250;-49
2021/09/20 12:56:07;;;;;;;4.18;2.70;;;;;;;19.79;41.07;102265.16;6135996;28;20329;-50
2021/09/20 12:59:34;;;;;;;3.45;2.60;;;;;;;20.41;40.12;102267.06;6145247;28;20259;-54
2021/09/20 13:03:05;;;;;;;3.38;3.08;;;;;;;21.59;37.81;102265.41;6143111;28;20227;-52
2021/09/20 13:06:27;;;;;;;3.83;3.38;;;;;;;21.77;37.29;102259.50;6139741;28;20625;-53
2021/09/20 13:09:55;;;;;;;5.07;3.17;;;;;;;21.35;38.03;102273.19;6135090;28;20228;-51
2021/09/20 13:13:29;;;;;;;4.68;2.88;;;;;;;21.02;37.89;102275.94;6139455;28;20231;-51
2021/09/20 13:16:53;;;;;;;3.67;3.30;;;;;;;21.15;38.87;102279.09;6139694;28;20219;-51
2021/09/20 13:20:16;;;;;;;3.50;3.20;;;;;;;21.61;37.44;102279.47;6136506;28;20224;-52
2021/09/20 13:23:38;;;;;;;3.33;3.03;;;;;;;19.65;40.51;102286.59;6125039;28;20806;-53
2021/09/20 13:26:59;;;;;;;5.40;4.00;;;;;;;19.82;40.79;102284.44;6141198;28;20786;-51
2021/09/20 13:30:20;;;;;;;12.27;11.00;;;;;;;19.18;42.17;102294.72;6146302;28;20211;-51
2021/09/20 13:33:43;;;;;;;3.38;3.08;;;;;;;19.07;41.64;102289.63;6137204;28;20231;-52
2021/09/20 13:37:04;;;;;;;4.45;3.40;;;;;;;18.66;42.31;102287.81;6144086;28;20224;-54
2021/09/20 13:40:26;;;;;;;5.72;3.50;;;;;;;18.57;42.49;102290.63;6144912;28;20212;-53
2021/09/20 13:43:47;;;;;;;4.05;3.65;;;;;;;18.59;42.58;102287.09;6143647;28;20219;-51
2021/09/20 13:47:08;;;;;;;3.38;3.00;;;;;;;18.35;42.69;102287.53;6144640;28;20236;-50
2021/09/20 13:50:31;;;;;;;3.45;3.15;;;;;;;18.26;42.23;102289.44;6142741;28;20207;-48
2021/09/20 13:53:52;;;;;;;3.10;2.80;;;;;;;18.27;43.25;102299.09;6142302;28;20235;-50
2021/09/20 13:57:13;;;;;;;5.60;3.28;;;;;;;18.22;43.29;102287.78;6136848;28;20983;-52
2021/09/20 14:00:36;;;;;;;3.00;2.80;;;;;;;18.16;43.49;102290.50;6132108;28;20243;-51
2021/09/20 14:03:57;;;;;;;3.28;2.97;;;;;;;18.01;43.21;102290.75;6135705;28;20188;-47
2021/09/20 14:07:21;;;;;;;3.50;3.20;;;;;;;18.04;43.72;102285.44;6131965;28;20251;-52
2021/09/20 14:10:43;;;;;;;3.40;3.10;;;;;;;18.20;43.66;102288.69;6133732;28;20219;-53
2021/09/20 14:14:04;;;;;;;5.25;3.15;;;;;;;17.95;43.21;102299.66;6122983;28;20227;-51
2021/09/20 14:17:25;;;;;;;3.72;3.00;;;;;;;17.92;43.65;102294.44;6120171;28;20511;-51
2021/09/20 14:20:47;;;;;;;3.95;2.70;;;;;;;17.69;43.90;102292.97;6126839;28;20243;-50
2021/09/20 14:24:09;;;;;;;3.73;3.40;;;;;;;17.52;43.40;102295.00;6137751;28;20204;-50
2021/09/20 14:27:31;;;;;;;2.63;2.42;;;;;;;17.76;43.04;102291.13;6142983;28;20874;-52
2021/09/20 14:30:52;;;;;;;7.60;3.37;;;;;;;17.61;42.79;102283.47;6139914;28;20230;-51
2021/09/20 14:34:13;;;;;;;3.23;2.93;;;;;;;18.13;45.41;102287.06;6146784;28;20578;-54
2021/09/20 14:37:36;;;;;;;4.37;3.10;;;;;;;18.12;43.69;102288.81;6139989;28;20318;-49
2021/09/20 14:40:59;;;;;;;2.50;2.20;;;;;;;18.21;45.50;102293.94;6132489;28;20231;-52
2021/09/20 14:44:20;;;;;;;4.37;3.03;;;;;;;18.09;42.26;102296.78;6141851;28;20196;-51
2021/09/20 14:47:41;;;;;;;4.07;2.73;;;;;;;17.95;43.83;102296.13;6142656;28;20314;-46
2021/09/20 14:51:03;;;;;;;2.57;2.37;;;;;;;18.20;43.22;102289.53;6143342;28;20231;-51
2021/09/20 14:54:24;;;;;;;3.03;2.73;;;;;;;18.09;42.61;102302.06;6144292;28;20199;-51
2021/09/20 14:57:49;;;;;;;3.60;2.63;;;;;;;17.90;42.46;102304.13;6139535;28;20288;-46
2021/09/20 15:01:09;;;;;;;2.55;2.35;;;;;;;17.76;42.73;102309.59;6138174;28;20338;-54
2021/09/20 15:04:30;;;;;;;4.97;3.23;;;;;;;17.81;42.38;102318.25;6144323;28;20590;-52
2021/09/20 15:07:51;;;;;;;2.80;2.58;;;;;;;17.86;43.52;102313.84;6143147;28;20223;-50
2021/09/20 15:11:17;;;;;;;3.40;2.50;;;;;;;17.86;42.50;102319.09;6134466;28;20231;-49
2021/09/20 15:14:40;;;;;;;4.13;2.87;;;;;;;18.02;42.60;102316.22;6133630;28;20220;-51
2021/09/20 15:18:00;;;;;;;2.63;2.43;;;;;;;17.50;43.04;102312.59;6137205;28;20236;-50
2021/09/20 15:21:22;;;;;;;4.30;4.00;;;;;;;17.55;44.39;102315.19;6142437;28;20227;-52
2021/09/20 15:24:43;;;;;;;3.07;2.77;;;;;;;17.56;43.93;102323.03;6139550;28;20196;-54
2021/09/20 15:28:04;;;;;;;5.17;4.53;;;;;;;17.51;44.40;102324.88;6138755;28;20224;-49
2021/09/20 15:31:27;;;;;;;5.03;3.63;;;;;;;17.32;44.60;102324.25;6137765;28;20621;-53
2021/09/20 15:34:48;;;;;;;4.73;3.30;;;;;;;17.45;44.72;102331.09;6138688;28;20203;-52
2021/09/20 15:38:09;;;;;;;5.00;3.10;;;;;;;17.50;44.55;102326.63;6144192;28;20227;-53
2021/09/20 15:41:30;;;;;;;5.53;2.90;;;;;;;17.41;44.90;102333.78;6132312;28;20677;-46